Time;durP1;ratioP1;P1;durP2;ratioP2;P2;SDS_P1;SDS_P2;PMS_P1;PMS_P2;Temp;Humidity;BMP_temperature;BMP_pressure;BME280_temperature;BME280_humidity;BME280_pressure;Samples;Min_cycle;Max_cycle;Signal;HPM_P1;HPM_P2
2022/03/20 00:00:55;;;;;;;8.95;5.45;;;6.40;99.90;;;;;;5051298;28;20036;-74
2022/03/20 00:03:23;;;;;;;8.00;4.55;;;6.40;99.90;;;;;;5050086;28;20323;-74
2022/03/20 00:05:50;;;;;;;8.85;5.55;;;6.80;99.90;;;;;;5065043;28;20039;-73
2022/03/20 00:08:17;;;;;;;10.40;5.68;;;7.20;99.90;;;;;;5053150;28;20042;-73
2022/03/20 00:10:45;;;;;;;9.57;6.00;;;6.50;99.90;;;;;;5072133;28;20116;-73
2022/03/20 00:13:18;;;;;;;11.02;5.63;;;6.40;99.90;;;;;;5067940;28;20048;-74
2022/03/20 00:15:46;;;;;;;10.88;5.40;;;6.40;99.90;;;;;;5074483;28;20254;-74
2022/03/20 00:18:15;;;;;;;9.55;5.95;;;6.40;99.90;;;;;;5067063;28;20060;-72
2022/03/20 00:20:47;;;;;;;8.55;5.25;;;6.30;99.90;;;;;;5064505;28;20048;-73
2022/03/20 00:23:14;;;;;;;7.80;5.38;;;6.20;99.90;;;;;;5067427;28;20049;-74
2022/03/20 00:25:44;;;;;;;7.75;5.07;;;6.30;99.90;;;;;;5070370;28;20040;-74
2022/03/20 00:28:18;;;;;;;7.18;4.50;;;6.20;99.90;;;;;;5074969;28;20255;-73
2022/03/20 00:30:45;;;;;;;9.30;5.30;;;6.30;99.90;;;;;;5074379;28;20044;-73
2022/03/20 00:33:10;;;;;;;8.25;4.20;;;6.20;99.90;;;;;;5067493;28;20085;-73
2022/03/20 00:35:36;;;;;;;9.75;5.65;;;6.30;99.90;;;;;;5062869;28;20048;-74
2022/03/20 00:38:03;;;;;;;10.65;5.20;;;6.30;99.90;;;;;;5066826;28;20071;-74
2022/03/20 00:40:29;;;;;;;8.00;5.15;;;6.40;99.90;;;;;;5065504;28;20254;-74
2022/03/20 00:42:55;;;;;;;8.25;5.05;;;6.30;99.90;;;;;;5061974;28;20044;-74
2022/03/20 00:45:20;;;;;;;10.05;5.75;;;6.60;99.90;;;;;;5061482;28;20041;-74
2022/03/20 00:47:48;;;;;;;10.63;5.40;;;6.20;99.90;;;;;;5074193;28;20078;-74
2022/03/20 00:50:14;;;;;;;10.00;5.93;;;6.20;99.90;;;;;;5072671;28;20047;-74
2022/03/20 00:52:40;;;;;;;10.00;5.15;;;6.20;99.90;;;;;;5068574;28;20052;-74
2022/03/20 00:55:06;;;;;;;9.15;5.82;;;6.20;99.90;;;;;;5036363;28;20354;-74
2022/03/20 00:57:32;;;;;;;9.27;5.45;;;6.10;99.90;;;;;;5070750;28;20051;-74
2022/03/20 00:59:57;;;;;;;10.70;5.50;;;6.10;99.90;;;;;;5058546;28;20091;-74
2022/03/20 01:02:23;;;;;;;7.20;4.47;;;6.10;99.90;;;;;;5038706;28;20044;-74
2022/03/20 01:04:49;;;;;;;7.65;4.75;;;6.20;99.90;;;;;;5061151;28;20116;-74
2022/03/20 01:07:15;;;;;;;8.50;5.00;;;6.10;99.90;;;;;;5073478;28;20102;-73
2022/03/20 01:09:41;;;;;;;4.75;3.42;;;6.20;99.90;;;;;;5081498;28;20638;-74
2022/03/20 01:12:10;;;;;;;11.10;5.57;;;6.10;99.90;;;;;;5058455;28;20059;-74
2022/03/20 01:14:36;;;;;;;11.07;5.53;;;6.10;99.90;;;;;;5059467;28;20040;-75
2022/03/20 01:17:02;;;;;;;9.38;5.45;;;6.20;99.90;;;;;;5048190;28;20353;-76
2022/03/20 01:19:28;;;;;;;10.35;5.97;;;6.10;99.90;;;;;;5066264;28;20281;-76
2022/03/20 01:21:55;;;;;;;10.50;6.07;;;6.10;99.90;;;;;;5079024;28;20036;-76
2022/03/20 01:24:24;;;;;;;6.80;4.97;;;6.10;99.90;;;;;;5051818;28;20103;-76
2022/03/20 01:26:50;;;;;;;12.00;6.70;;;6.10;99.90;;;;;;5074253;28;20071;-77
2022/03/20 01:29:16;;;;;;;7.63;5.15;;;6.00;99.90;;;;;;5068397;28;20055;-75
2022/03/20 01:31:41;;;;;;;9.95;5.97;;;6.00;99.90;;;;;;5080844;28;20041;-77
2022/03/20 01:34:07;;;;;;;7.60;5.35;;;6.00;99.90;;;;;;5045983;28;20330;-76
2022/03/20 01:36:33;;;;;;;7.85;5.63;;;6.00;99.90;;;;;;5081085;28;20052;-75
2022/03/20 01:38:59;;;;;;;11.45;6.38;;;6.00;99.90;;;;;;5080443;28;20095;-76
2022/03/20 01:41:25;;;;;;;12.82;6.72;;;5.90;99.90;;;;;;5051433;28;20036;-76
2022/03/20 01:43:57;;;;;;;8.57;6.28;;;6.40;99.90;;;;;;5060435;28;20037;-74
2022/03/20 01:46:23;;;;;;;9.52;6.07;;;6.00;99.90;;;;;;5066177;28;20068;-75
2022/03/20 01:48:49;;;;;;;12.30;6.43;;;6.00;99.90;;;;;;5039412;28;20048;-74
2022/03/20 01:51:16;;;;;;;9.93;6.38;;;6.60;99.90;;;;;;5070776;28;20115;-75
2022/03/20 01:53:43;;;;;;;11.90;5.25;;;6.00;99.90;;;;;;5046389;28;20029;-75
2022/03/20 01:56:09;;;;;;;10.77;6.60;;;6.10;99.90;;;;;;5064685;28;20123;-75
2022/03/20 01:58:35;;;;;;;13.57;6.55;;;5.90;99.90;;;;;;5047874;28;20054;-75
2022/03/20 02:01:02;;;;;;;11.65;6.03;;;5.90;99.90;;;;;;5062603;28;20052;-75
2022/03/20 02:03:29;;;;;;;10.30;6.47;;;5.90;99.90;;;;;;5070208;28;20037;-75
2022/03/20 02:05:55;;;;;;;10.25;5.75;;;6.00;99.90;;;;;;5062684;28;20041;-75
2022/03/20 02:08:25;;;;;;;10.73;5.82;;;5.90;99.90;;;;;;5057457;28;20317;-75
2022/03/20 02:10:55;;;;;;;10.80;5.93;;;5.90;99.90;;;;;;5065622;28;20045;-75
2022/03/20 02:13:24;;;;;;;15.82;6.65;;;5.90;99.90;;;;;;5069680;28;20041;-74
2022/03/20 02:15:51;;;;;;;9.02;6.05;;;5.90;99.90;;;;;;5048763;28;20060;-74
2022/03/20 02:18:19;;;;;;;11.63;7.50;;;5.90;99.90;;;;;;5057363;28;20048;-75
2022/03/20 02:20:48;;;;;;;11.52;7.13;;;5.90;99.90;;;;;;5046495;28;20040;-75
2022/03/20 02:23:15;;;;;;;14.70;7.22;;;5.90;99.90;;;;;;5059143;28;20040;-75
2022/03/20 02:25:51;;;;;;;11.32;6.93;;;5.90;99.90;;;;;;5046619;28;20048;-75
2022/03/20 02:28:18;;;;;;;10.15;6.10;;;5.90;99.90;;;;;;5062156;28;20278;-75
2022/03/20 02:30:46;;;;;;;11.80;7.00;;;5.90;99.90;;;;;;5058005;28;20042;-75
2022/03/20 02:33:13;;;;;;;10.70;7.05;;;5.90;99.90;;;;;;5075025;28;20040;-75
2022/03/20 02:35:40;;;;;;;11.93;7.43;;;5.90;99.90;;;;;;5078056;28;20383;-74
2022/03/20 02:38:10;;;;;;;11.32;6.63;;;5.80;99.90;;;;;;5077488;28;20036;-75
2022/03/20 02:40:37;;;;;;;12.55;7.28;;;6.10;99.90;;;;;;5073891;28;20116;-74
2022/03/20 02:43:06;;;;;;;13.77;8.13;;;5.70;99.90;;;;;;5069350;28;20064;-74
2022/03/20 02:45:32;;;;;;;12.85;7.53;;;5.80;99.90;;;;;;5068200;28;20032;-74
2022/03/20 02:47:59;;;;;;;14.15;7.95;;;5.60;99.90;;;;;;5069313;28;20028;-74
2022/03/20 02:50:32;;;;;;;13.57;8.80;;;6.40;99.90;;;;;;5078406;28;20107;-74
2022/03/20 02:53:03;;;;;;;14.38;8.10;;;5.50;99.90;;;;;;5071277;28;20114;-74
2022/03/20 02:55:31;;;;;;;15.13;9.23;;;5.50;99.90;;;;;;5052954;28;20199;-74
2022/03/20 02:58:00;;;;;;;15.82;7.95;;;5.40;99.90;;;;;;5079254;28;20040;-74
2022/03/20 03:00:28;;;;;;;13.70;7.63;;;5.40;99.90;;;;;;5073223;28;20239;-74
2022/03/20 03:02:58;;;;;;;15.60;10.10;;;5.40;99.90;;;;;;5076322;28;20104;-74
2022/03/20 03:05:26;;;;;;;16.85;8.93;;;5.30;99.90;;;;;;5078094;28;20073;-74
2022/03/20 03:10:56;;;;;;;16.02;9.50;;;5.30;99.90;;;;;;5074120;28;20094;-74
2022/03/20 03:13:39;;;;;;;15.03;9.77;;;6.10;99.90;;;;;;5075375;28;20053;-74
2022/03/20 03:16:10;;;;;;;14.45;9.23;;;5.10;99.90;;;;;;5063518;28;20295;-74
2022/03/20 03:18:38;;;;;;;14.48;9.18;;;5.10;99.90;;;;;;5063279;28;20230;-75
2022/03/20 03:21:05;;;;;;;12.88;9.20;;;5.00;99.90;;;;;;5041406;28;20047;-75
2022/03/20 03:23:31;;;;;;;16.25;9.93;;;5.00;99.90;;;;;;5072418;28;20093;-74
2022/03/20 03:25:57;;;;;;;15.98;9.93;;;4.90;99.90;;;;;;5074324;28;20192;-74
2022/03/20 03:28:28;;;;;;;15.45;9.23;;;4.90;99.90;;;;;;5053019;28;20560;-75
2022/03/20 03:30:54;;;;;;;15.75;9.95;;;5.60;99.90;;;;;;5054812;28;20020;-75
2022/03/20 03:33:21;;;;;;;18.52;10.52;;;5.40;99.90;;;;;;5048319;28;20778;-75
2022/03/20 03:35:57;;;;;;;18.77;10.60;;;4.70;99.90;;;;;;5059095;28;20082;-75
2022/03/20 03:38:30;;;;;;;18.25;9.88;;;4.70;99.90;;;;;;5064901;28;20091;-75
2022/03/20 03:40:56;;;;;;;17.42;8.57;;;4.70;99.90;;;;;;5054705;28;20060;-74
2022/03/20 03:43:23;;;;;;;16.63;9.52;;;4.70;99.90;;;;;;5054600;28;20095;-74
2022/03/20 03:45:49;;;;;;;18.10;10.15;;;4.70;99.90;;;;;;5054509;28;20040;-74
2022/03/20 03:48:18;;;;;;;13.18;8.73;;;4.60;99.90;;;;;;5067904;28;20086;-74
2022/03/20 03:50:47;;;;;;;14.82;9.52;;;4.60;99.90;;;;;;5057518;28;20078;-75
2022/03/20 03:53:13;;;;;;;12.02;6.32;;;4.50;99.90;;;;;;5073146;28;20040;-74
2022/03/20 03:55:43;;;;;;;13.57;9.50;;;4.50;99.90;;;;;;5053899;28;20036;-74
2022/03/20 03:58:13;;;;;;;17.25;9.82;;;4.80;99.90;;;;;;5068253;28;20044;-73
2022/03/20 04:00:40;;;;;;;17.05;10.70;;;4.40;99.90;;;;;;5049089;28;20237;-74
2022/03/20 04:03:05;;;;;;;18.08;10.88;;;4.30;99.90;;;;;;5072711;28;20033;-74
2022/03/20 04:05:31;;;;;;;15.05;9.23;;;4.30;99.90;;;;;;5066627;28;20067;-74
2022/03/20 04:07:57;;;;;;;16.08;10.30;;;4.30;99.90;;;;;;5037278;28;20055;-74
2022/03/20 04:10:24;;;;;;;14.95;10.15;;;4.40;99.90;;;;;;5056873;28;20120;-73
2022/03/20 04:12:50;;;;;;;16.65;10.40;;;4.30;99.90;;;;;;5067840;28;20040;-74
2022/03/20 04:15:23;;;;;;;17.17;10.00;;;4.40;99.90;;;;;;5050579;28;20445;-74
2022/03/20 04:17:49;;;;;;;11.90;8.20;;;4.90;99.90;;;;;;5065772;28;20036;-74
2022/03/20 04:20:14;;;;;;;14.98;10.70;;;4.20;99.90;;;;;;5058292;28;20198;-74
2022/03/20 04:23:42;;;;;;;13.80;9.15;;;5.00;99.90;;;;;;5042436;28;20364;-74
2022/03/20 04:25:30;;;;;;;17.92;10.30;;;4.20;99.90;;;;;;5069641;28;20185;-73
2022/03/20 04:27:57;;;;;;;15.52;10.07;;;4.00;99.90;;;;;;5051565;28;20113;-73
2022/03/20 04:30:25;;;;;;;18.15;10.23;;;4.10;99.90;;;;;;5074349;28;20243;-74
2022/03/20 04:32:52;;;;;;;14.23;9.40;;;4.00;99.90;;;;;;5057568;28;20383;-73
2022/03/20 04:35:23;;;;;;;15.13;9.38;;;4.10;99.90;;;;;;5052310;28;20041;-74
2022/03/20 04:37:53;;;;;;;20.10;10.23;;;4.00;99.90;;;;;;5047977;28;20036;-73
2022/03/20 04:40:19;;;;;;;18.80;11.55;;;4.00;99.90;;;;;;5057808;28;20044;-73
2022/03/20 04:42:45;;;;;;;20.95;12.05;;;4.00;99.90;;;;;;5039345;28;20049;-73
2022/03/20 04:45:13;;;;;;;21.08;11.25;;;4.00;99.90;;;;;;5072040;28;20047;-74
2022/03/20 04:58:51;;;;;;;16.60;9.95;;;3.90;99.90;;;;;;5050099;28;20036;-73
2022/03/20 05:01:16;;;;;;;17.13;10.20;;;4.60;99.90;;;;;;5077201;28;20098;-74
2022/03/20 05:03:42;;;;;;;15.32;9.20;;;3.90;99.90;;;;;;5053179;28;20032;-74
2022/03/20 05:06:08;;;;;;;11.68;6.75;;;3.80;99.90;;;;;;5045413;28;20028;-74
2022/03/20 05:08:37;;;;;;;14.10;9.40;;;3.80;99.90;;;;;;5052924;28;20032;-74
2022/03/20 05:13:48;;;;;;;16.60;10.85;;;4.60;99.90;;;;;;5067037;28;20051;-74
2022/03/20 05:16:14;;;;;;;19.83;11.48;;;4.80;99.90;;;;;;5077715;28;20052;-74
2022/03/20 05:18:39;;;;;;;20.13;9.77;;;3.60;99.90;;;;;;5070047;28;20044;-74
2022/03/20 05:21:05;;;;;;;18.05;11.60;;;4.40;99.90;;;;;;5077915;28;20032;-74
2022/03/20 05:23:32;;;;;;;17.23;11.88;;;3.60;99.90;;;;;;5053527;28;20052;-74
2022/03/20 05:25:58;;;;;;;18.20;11.25;;;3.70;99.90;;;;;;5075428;28;20036;-74
2022/03/20 05:28:24;;;;;;;18.65;11.07;;;3.70;99.90;;;;;;5038829;28;20219;-74
2022/03/20 05:30:50;;;;;;;15.23;10.45;;;3.80;99.90;;;;;;5063162;28;20042;-74
2022/03/20 05:33:16;;;;;;;16.80;11.05;;;3.60;99.90;;;;;;5051432;28;20028;-73
2022/03/20 05:35:45;;;;;;;19.85;10.65;;;3.60;99.90;;;;;;5056547;28;20044;-74
2022/03/20 05:38:11;;;;;;;16.02;10.27;;;4.30;99.90;;;;;;5071288;28;20088;-74
2022/03/20 05:40:42;;;;;;;15.02;9.07;;;3.70;99.90;;;;;;5054846;28;20051;-75
2022/03/20 05:43:08;;;;;;;14.48;7.93;;;3.60;99.90;;;;;;5079376;28;20044;-74
2022/03/20 05:45:37;;;;;;;17.35;9.68;;;3.70;99.90;;;;;;5028811;28;20045;-74
2022/03/20 05:48:03;;;;;;;17.85;9.55;;;4.70;99.90;;;;;;5096287;28;20079;-74
2022/03/20 05:50:29;;;;;;;18.30;11.00;;;3.60;99.90;;;;;;5071262;28;20256;-74
2022/03/20 05:52:55;;;;;;;19.80;12.27;;;3.70;99.90;;;;;;5072185;28;20055;-72
2022/03/20 05:58:01;;;;;;;15.48;8.93;;;3.60;99.90;;;;;;5073174;28;20108;-72
2022/03/20 05:58:11;;;;;;;18.17;11.05;;;3.60;99.90;;;;;;5053440;28;20060;-73
2022/03/20 06:00:41;;;;;;;20.98;13.35;;;4.20;99.90;;;;;;5036905;28;20327;-73
2022/03/20 06:03:07;;;;;;;15.30;9.68;;;4.50;99.90;;;;;;5076375;28;20339;-73
2022/03/20 06:05:33;;;;;;;21.30;12.00;;;3.50;99.90;;;;;;5054406;28;20046;-73
2022/03/20 06:07:59;;;;;;;22.33;11.60;;;3.90;99.90;;;;;;5072468;28;20071;-73
2022/03/20 06:10:25;;;;;;;23.42;12.80;;;4.50;99.90;;;;;;5068365;28;20089;-73
2022/03/20 06:12:51;;;;;;;20.02;12.77;;;3.90;99.90;;;;;;5078298;28;20060;-74
2022/03/20 06:15:16;;;;;;;17.80;10.48;;;3.70;99.90;;;;;;5054008;28;20044;-74
2022/03/20 06:17:47;;;;;;;16.67;10.52;;;3.60;99.90;;;;;;5055199;28;20111;-74
2022/03/20 06:20:15;;;;;;;15.38;8.70;;;4.70;99.90;;;;;;5071219;28;20314;-74
2022/03/20 06:22:44;;;;;;;16.65;9.63;;;3.60;99.90;;;;;;5072942;28;20044;-73
2022/03/20 06:25:15;;;;;;;17.00;10.82;;;3.50;99.90;;;;;;5069192;28;20373;-74
2022/03/20 06:27:45;;;;;;;16.85;10.00;;;3.60;99.90;;;;;;5069863;28;20112;-74
2022/03/20 06:30:13;;;;;;;17.77;11.10;;;3.60;99.90;;;;;;5056969;28;20226;-74
2022/03/20 06:32:40;;;;;;;19.55;10.30;;;4.10;99.90;;;;;;5049592;28;20055;-74
2022/03/20 06:35:06;;;;;;;17.13;10.55;;;3.80;99.90;;;;;;5058156;28;20055;-74
2022/03/20 06:37:40;;;;;;;16.58;10.30;;;3.70;99.90;;;;;;5062799;28;20052;-74
2022/03/20 06:40:07;;;;;;;19.20;11.32;;;4.40;99.90;;;;;;5069368;28;20051;-74
2022/03/20 06:42:33;;;;;;;17.88;10.77;;;3.70;99.90;;;;;;5053766;28;20226;-75
2022/03/20 06:44:59;;;;;;;19.92;12.05;;;3.70;99.90;;;;;;5049042;28;20036;-73
2022/03/20 06:47:26;;;;;;;13.52;8.00;;;3.70;99.90;;;;;;5033626;28;20033;-73
2022/03/20 06:49:53;;;;;;;19.08;10.85;;;3.80;99.90;;;;;;5053015;28;20036;-74
2022/03/20 06:52:22;;;;;;;19.10;11.43;;;3.70;99.90;;;;;;5075955;28;20119;-74
2022/03/20 06:54:49;;;;;;;19.45;12.00;;;3.80;99.90;;;;;;5051905;28;20056;-73
2022/03/20 06:57:18;;;;;;;16.42;10.95;;;4.50;99.90;;;;;;5054155;28;20036;-73
2022/03/20 06:59:45;;;;;;;20.42;13.75;;;4.60;99.90;;;;;;5067889;28;20303;-73
2022/03/20 07:02:11;;;;;;;17.45;11.75;;;3.80;99.90;;;;;;5054730;28;20153;-74
2022/03/20 07:04:37;;;;;;;17.75;8.73;;;3.90;99.90;;;;;;5039795;28;20029;-74
2022/03/20 07:07:03;;;;;;;15.75;9.23;;;3.90;99.90;;;;;;5060583;28;20329;-73
2022/03/20 07:09:29;;;;;;;15.73;9.88;;;4.00;99.90;;;;;;5054349;28;20041;-73
2022/03/20 07:11:54;;;;;;;18.48;11.68;;;3.90;99.90;;;;;;5075303;28;20036;-74
2022/03/20 07:14:20;;;;;;;18.50;11.43;;;4.00;99.90;;;;;;5061142;28;20040;-74
2022/03/20 07:16:46;;;;;;;19.38;13.20;;;4.10;99.90;;;;;;5053217;28;20047;-74
2022/03/20 07:19:12;;;;;;;22.75;12.55;;;4.20;99.90;;;;;;5069181;28;20052;-74
2022/03/20 07:21:37;;;;;;;24.35;11.88;;;4.30;99.90;;;;;;5062480;28;20415;-74
2022/03/20 07:24:03;;;;;;;20.88;13.25;;;4.00;99.90;;;;;;5054161;28;20231;-74
2022/03/20 07:29:32;;;;;;;19.80;12.48;;;4.60;99.90;;;;;;5044425;28;20224;-75
2022/03/20 07:32:04;;;;;;;21.58;13.68;;;4.30;99.90;;;;;;5062398;28;20210;-74
2022/03/20 07:34:30;;;;;;;21.35;12.02;;;4.40;99.90;;;;;;5066687;28;20078;-74
2022/03/20 07:36:56;;;;;;;23.30;13.93;;;4.20;99.90;;;;;;5073529;28;20047;-74
2022/03/20 07:39:22;;;;;;;16.27;11.30;;;4.20;99.90;;;;;;5068959;28;20048;-74
2022/03/20 07:41:48;;;;;;;22.65;13.93;;;4.30;99.90;;;;;;5077241;28;20041;-74
2022/03/20 07:44:13;;;;;;;17.58;10.70;;;4.40;99.90;;;;;;5043199;28;20048;-74
2022/03/20 07:46:40;;;;;;;20.15;13.73;;;4.40;99.90;;;;;;5076175;28;20043;-74
2022/03/20 07:49:07;;;;;;;16.08;11.20;;;4.50;99.90;;;;;;5071120;28;20068;-74
2022/03/20 07:51:34;;;;;;;22.05;12.75;;;4.50;99.90;;;;;;5067325;28;20033;-73
2022/03/20 07:54:00;;;;;;;20.38;12.95;;;4.50;99.90;;;;;;5066739;28;20067;-73
2022/03/20 07:56:28;;;;;;;20.67;14.35;;;4.60;99.90;;;;;;5067362;28;20033;-74
2022/03/20 07:58:54;;;;;;;18.02;10.68;;;4.40;99.90;;;;;;5060048;28;20044;-73
2022/03/20 08:01:21;;;;;;;20.98;12.38;;;4.60;99.90;;;;;;5074757;28;20227;-73
2022/03/20 08:03:48;;;;;;;23.02;14.07;;;4.60;99.90;;;;;;5053701;28;20068;-73
2022/03/20 08:06:15;;;;;;;22.40;11.32;;;4.80;99.90;;;;;;5040860;28;20048;-72
2022/03/20 08:08:42;;;;;;;21.10;13.65;;;4.80;99.90;;;;;;5063630;28;20036;-74
2022/03/20 08:11:08;;;;;;;20.13;12.82;;;4.90;99.90;;;;;;5032704;28;20025;-73
2022/03/20 08:13:34;;;;;;;16.05;9.95;;;5.00;99.90;;;;;;5070973;28;20060;-73
2022/03/20 08:16:00;;;;;;;18.92;13.13;;;4.90;99.90;;;;;;5055895;28;20102;-73
2022/03/20 08:18:27;;;;;;;18.77;11.35;;;5.10;99.90;;;;;;5043278;28;20048;-73
2022/03/20 08:20:53;;;;;;;18.75;11.70;;;5.10;99.90;;;;;;5065123;28;20064;-73
2022/03/20 08:23:18;;;;;;;19.63;13.68;;;5.10;99.90;;;;;;5062955;28;20162;-73
2022/03/20 08:25:44;;;;;;;19.85;14.02;;;5.30;99.90;;;;;;5057897;28;20227;-73
2022/03/20 08:28:11;;;;;;;22.17;13.25;;;5.40;99.90;;;;;;5069078;28;20045;-73
2022/03/20 08:30:38;;;;;;;16.80;9.70;;;5.40;99.90;;;;;;5073951;28;20104;-73
2022/03/20 08:33:05;;;;;;;21.25;13.68;;;5.50;99.90;;;;;;5061943;28;20036;-73
2022/03/20 08:35:31;;;;;;;19.90;11.48;;;5.80;99.90;;;;;;5066015;28;20251;-74
2022/03/20 08:37:57;;;;;;;16.98;9.77;;;5.60;99.90;;;;;;5054461;28;20044;-73
2022/03/20 08:40:24;;;;;;;18.60;12.18;;;5.70;99.90;;;;;;5055782;28;20056;-73
2022/03/20 08:42:53;;;;;;;20.60;12.98;;;5.60;99.90;;;;;;5068088;28;20083;-73
2022/03/20 08:45:21;;;;;;;20.83;12.45;;;6.00;99.90;;;;;;5066120;28;20305;-73
2022/03/20 08:47:53;;;;;;;22.30;14.65;;;5.90;99.90;;;;;;5068478;28;20032;-72
2022/03/20 08:50:19;;;;;;;21.23;13.80;;;5.90;99.90;;;;;;5054287;28;20055;-73
2022/03/20 08:52:46;;;;;;;21.10;12.85;;;5.90;99.90;;;;;;5027561;28;20044;-73
2022/03/20 08:55:13;;;;;;;22.35;13.90;;;6.00;99.90;;;;;;5072976;28;20115;-73
2022/03/20 08:57:41;;;;;;;20.95;13.07;;;6.20;99.90;;;;;;5073202;28;20036;-73
2022/03/20 09:00:09;;;;;;;23.20;14.52;;;6.40;99.90;;;;;;5061223;28;20241;-73
2022/03/20 09:02:35;;;;;;;21.20;15.02;;;6.50;99.90;;;;;;5058979;28;20196;-72
2022/03/20 09:05:00;;;;;;;20.30;12.38;;;6.40;99.90;;;;;;5065548;28;20059;-72
2022/03/20 09:07:26;;;;;;;17.60;10.95;;;6.60;99.90;;;;;;5046575;28;20033;-73
2022/03/20 09:09:52;;;;;;;23.73;13.65;;;6.50;99.90;;;;;;5049102;28;20037;-73
2022/03/20 09:12:17;;;;;;;18.95;13.23;;;6.50;99.90;;;;;;5044933;28;20053;-73
2022/03/20 09:14:43;;;;;;;20.13;13.23;;;6.60;99.90;;;;;;5066638;28;20040;-73
2022/03/20 09:19:55;;;;;;;23.95;14.60;;;6.60;99.90;;;;;;5073679;28;20070;-73
2022/03/20 09:22:21;;;;;;;24.85;15.07;;;6.80;99.90;;;;;;5054041;28;20044;-72
2022/03/20 09:24:47;;;;;;;18.75;11.80;;;6.80;99.90;;;;;;5072370;28;20029;-73
2022/03/20 09:27:15;;;;;;;22.63;14.60;;;7.00;99.90;;;;;;5071870;28;20158;-73
2022/03/20 09:29:44;;;;;;;22.48;14.63;;;7.00;99.90;;;;;;5056852;28;20327;-73
2022/03/20 09:32:10;;;;;;;22.38;15.70;;;7.30;99.90;;;;;;5073641;28;20204;-72
2022/03/20 09:34:36;;;;;;;21.92;13.25;;;7.30;99.90;;;;;;5072582;28;20204;-73
2022/03/20 09:37:01;;;;;;;21.95;13.75;;;7.40;99.90;;;;;;5049731;28;20055;-74
2022/03/20 09:39:27;;;;;;;22.70;14.18;;;7.40;99.90;;;;;;5052694;28;20033;-73
2022/03/20 09:41:56;;;;;;;23.60;15.18;;;7.60;99.90;;;;;;5036782;28;20045;-72
2022/03/20 09:44:23;;;;;;;20.95;15.93;;;7.70;97.20;;;;;;5063656;28;20313;-73
2022/03/20 09:46:49;;;;;;;23.23;14.10;;;7.90;96.30;;;;;;5069731;28;20127;-74
2022/03/20 09:49:22;;;;;;;22.10;14.00;;;7.90;94.60;;;;;;5067712;28;20258;-73
2022/03/20 09:51:47;;;;;;;22.25;13.20;;;8.00;91.00;;;;;;5049295;28;20024;-74
2022/03/20 09:54:14;;;;;;;20.08;12.55;;;8.00;90.00;;;;;;5070099;28;20106;-73
2022/03/20 09:56:43;;;;;;;17.25;11.13;;;8.20;90.20;;;;;;5063700;28;20055;-73
2022/03/20 09:59:10;;;;;;;20.15;13.27;;;8.20;88.40;;;;;;5075910;28;20231;-72
2022/03/20 10:01:36;;;;;;;23.15;14.23;;;8.30;86.50;;;;;;5064336;28;20121;-74
2022/03/20 10:04:11;;;;;;;20.85;12.43;;;8.40;87.40;;;;;;5066538;28;20080;-73
2022/03/20 10:06:38;;;;;;;18.20;11.55;;;8.40;83.60;;;;;;5065686;28;20032;-74
2022/03/20 10:09:16;;;;;;;21.20;14.27;;;8.70;82.50;;;;;;5073770;28;20338;-75
2022/03/20 10:11:57;;;;;;;19.58;12.48;;;8.80;82.80;;;;;;5070619;28;20300;-73
2022/03/20 10:14:29;;;;;;;21.17;14.88;;;8.80;81.30;;;;;;5054508;28;20040;-74
2022/03/20 10:17:16;;;;;;;22.42;15.13;;;9.10;81.10;;;;;;5070773;28;20056;-73
2022/03/20 10:19:42;;;;;;;19.63;12.30;;;9.10;77.80;;;;;;5066045;28;20285;-75
2022/03/20 10:22:10;;;;;;;22.55;12.38;;;9.00;75.30;;;;;;5047850;28;20319;-74
2022/03/20 10:24:38;;;;;;;21.60;14.40;;;8.90;74.70;;;;;;5057646;28;20076;-73
2022/03/20 10:27:07;;;;;;;21.52;13.00;;;9.00;75.90;;;;;;5068373;28;20036;-73
2022/03/20 10:29:34;;;;;;;23.55;14.48;;;9.10;74.60;;;;;;5049647;28;20072;-73
2022/03/20 10:32:10;;;;;;;22.85;14.10;;;9.10;73.80;;;;;;5061466;28;20254;-73
2022/03/20 10:34:50;;;;;;;23.35;15.65;;;9.40;73.10;;;;;;5071820;28;20334;-74
2022/03/20 10:37:18;;;;;;;24.50;15.85;;;9.30;70.10;;;;;;5066723;28;20224;-74
2022/03/20 10:39:44;;;;;;;22.30;13.88;;;9.30;71.20;;;;;;5033927;28;20107;-73
2022/03/20 10:42:12;;;;;;;23.55;14.20;;;9.30;69.80;;;;;;5072014;28;20044;-74
2022/03/20 10:44:38;;;;;;;23.88;15.43;;;9.30;70.20;;;;;;5069025;28;20350;-73
2022/03/20 10:47:16;;;;;;;17.63;11.88;;;9.70;71.90;;;;;;5068412;28;20099;-74
2022/03/20 10:50:03;;;;;;;24.63;17.42;;;9.60;68.90;;;;;;5075268;28;20076;-74
2022/03/20 10:52:30;;;;;;;20.55;13.35;;;10.00;70.70;;;;;;5067952;28;20054;-73
2022/03/20 10:54:56;;;;;;;22.88;15.52;;;9.70;67.10;;;;;;5060959;28;20540;-74
2022/03/20 10:57:34;;;;;;;21.33;14.07;;;9.60;67.90;;;;;;5051537;28;20052;-74
2022/03/20 11:00:05;;;;;;;20.75;13.55;;;9.70;66.90;;;;;;5058241;28;20253;-76
2022/03/20 11:02:31;;;;;;;23.45;13.20;;;9.60;65.70;;;;;;5060218;28;20049;-74
2022/03/20 11:04:56;;;;;;;21.20;13.05;;;9.70;65.40;;;;;;5071173;28;20075;-73
2022/03/20 11:07:23;;;;;;;22.45;13.95;;;9.80;66.80;;;;;;5054259;28;20044;-73
2022/03/20 11:09:56;;;;;;;23.92;15.63;;;9.80;66.00;;;;;;5068488;28;20059;-73
2022/03/20 11:12:32;;;;;;;24.02;16.02;;;9.80;65.60;;;;;;5061199;28;20317;-73
2022/03/20 11:15:06;;;;;;;21.02;13.55;;;9.90;65.50;;;;;;5043808;28;20321;-73
2022/03/20 11:17:52;;;;;;;25.42;16.85;;;9.80;65.10;;;;;;5028257;28;20111;-73
2022/03/20 11:20:19;;;;;;;19.92;14.23;;;10.10;65.90;;;;;;5062365;28;20059;-74
2022/03/20 11:22:50;;;;;;;25.23;17.05;;;10.10;66.30;;;;;;5047270;28;20424;-74
2022/03/20 11:25:20;;;;;;;28.60;17.73;;;10.40;67.80;;;;;;5064128;28;20254;-73
2022/03/20 11:27:51;;;;;;;27.92;17.83;;;10.50;66.60;;;;;;5062882;28;20036;-74
2022/03/20 11:30:19;;;;;;;19.27;13.82;;;10.50;66.60;;;;;;5059986;28;20076;-74
2022/03/20 11:32:46;;;;;;;24.00;14.13;;;10.50;64.60;;;;;;5075949;28;20194;-73
2022/03/20 11:35:12;;;;;;;22.30;16.25;;;10.40;63.30;;;;;;5047862;28;20112;-74
2022/03/20 11:37:47;;;;;;;18.85;13.07;;;10.70;64.50;;;;;;5029347;28;20093;-75
2022/03/20 11:40:17;;;;;;;22.60;14.45;;;10.60;62.30;;;;;;5066413;28;20080;-74
2022/03/20 11:42:43;;;;;;;25.88;17.25;;;10.70;62.40;;;;;;5043849;28;20052;-75
2022/03/20 11:45:14;;;;;;;19.42;12.77;;;10.80;62.20;;;;;;5038512;28;20120;-75
2022/03/20 11:47:43;;;;;;;20.90;13.85;;;10.70;61.60;;;;;;5065321;28;20036;-75
2022/03/20 11:50:16;;;;;;;24.88;14.15;;;10.80;61.70;;;;;;5048162;28;20064;-74
2022/03/20 11:52:46;;;;;;;24.83;13.23;;;10.60;60.20;;;;;;5048333;28;20044;-74
2022/03/20 11:55:38;;;;;;;23.17;15.32;;;10.50;60.00;;;;;;5043234;28;20084;-74
2022/03/20 11:58:25;;;;;;;22.25;14.82;;;10.50;60.60;;;;;;5064557;28;20102;-73
2022/03/20 12:01:05;;;;;;;22.02;13.73;;;10.50;61.10;;;;;;5061656;28;20064;-74
2022/03/20 12:04:04;;;;;;;26.95;17.48;;;10.50;60.40;;;;;;5057572;28;20045;-73
2022/03/20 12:06:57;;;;;;;21.75;14.60;;;10.60;59.80;;;;;;5065279;28;20047;-73
2022/03/20 12:09:50;;;;;;;21.77;15.25;;;10.80;60.20;;;;;;5044732;28;20060;-75
2022/03/20 12:12:22;;;;;;;22.13;14.82;;;10.90;58.90;;;;;;5048242;28;20093;-74
2022/03/20 12:14:53;;;;;;;24.27;16.75;;;10.90;58.70;;;;;;5045609;28;20154;-74
2022/03/20 12:17:20;;;;;;;25.67;14.98;;;10.70;58.60;;;;;;5063107;28;20048;-74
2022/03/20 12:19:53;;;;;;;21.42;13.35;;;10.80;59.90;;;;;;5039507;28;20260;-74
2022/03/20 12:22:19;;;;;;;21.23;13.02;;;10.60;58.20;;;;;;5049464;28;20059;-74
2022/03/20 12:24:53;;;;;;;21.80;13.20;;;10.70;58.70;;;;;;5054903;28;20041;-73
2022/03/20 12:27:19;;;;;;;25.37;15.43;;;10.70;59.60;;;;;;5064890;28;20050;-74
2022/03/20 12:29:46;;;;;;;25.55;15.93;;;10.70;59.10;;;;;;5048323;28;20581;-74
2022/03/20 12:32:12;;;;;;;18.85;12.57;;;10.60;58.90;;;;;;5060405;28;20298;-74
2022/03/20 12:34:41;;;;;;;20.92;13.82;;;10.60;58.10;;;;;;5064210;28;20200;-73
2022/03/20 12:37:35;;;;;;;22.10;13.45;;;10.70;58.10;;;;;;5038230;28;20154;-74
2022/03/20 12:40:08;;;;;;;24.42;14.40;;;11.00;58.20;;;;;;5046255;28;20048;-73
2022/03/20 12:42:39;;;;;;;23.33;14.38;;;11.10;57.60;;;;;;5066996;28;20079;-74
2022/03/20 12:45:08;;;;;;;22.65;13.65;;;11.20;58.20;;;;;;5057230;28;20041;-74
2022/03/20 12:47:34;;;;;;;21.65;15.60;;;11.40;57.40;;;;;;5050633;28;20102;-75
2022/03/20 12:50:03;;;;;;;20.48;12.85;;;11.90;58.20;;;;;;5039300;28;20067;-74
2022/03/20 12:52:33;;;;;;;22.00;15.63;;;11.80;56.00;;;;;;5050330;28;20364;-75
2022/03/20 12:55:03;;;;;;;22.52;15.23;;;11.80;56.70;;;;;;5055572;28;20115;-74
2022/03/20 12:57:39;;;;;;;20.58;14.75;;;12.00;56.40;;;;;;5066799;28;20131;-75
2022/03/20 13:00:18;;;;;;;20.80;14.25;;;12.00;55.90;;;;;;5071405;28;20040;-75
2022/03/20 13:03:07;;;;;;;22.80;15.80;;;11.90;54.90;;;;;;5066567;28;20044;-75
2022/03/20 13:05:40;;;;;;;23.88;15.85;;;12.10;55.40;;;;;;5068411;28;20056;-74
2022/03/20 13:08:07;;;;;;;23.92;14.35;;;12.00;55.10;;;;;;5066799;28;20346;-74
2022/03/20 13:10:39;;;;;;;22.08;15.77;;;11.80;54.60;;;;;;5059746;28;20047;-74